الصفحة الرئيسية
METAR-TAF:

METAR-TAF

مطار :

مدريد, إسبانيا

مطار مدريد باراخاس الدولي

دائرة عرض: 40-27N, خط طول: 003-33W, ارتفاع: 609 متر

مراقبة الطقس الحالي

تاريخ ووقت الإصدار 12 دقيقة قبل الساعة 03:30UTC
رياح هادئة
درجة الحرارة 0°درجة مئوية
الرطوبة 100%
ضغط 1020 hPa
الرؤية 10 كم أو أكثر
الغيوم لا تقل 1500 م ولا وجود لمزنة ركامية السحاب الأسود

METAR: LEMD 190330Z 00000KT CAVOK 00/00 Q1020 NOSIG

زمن: 04:42 (03:42 UTC)

توقعات

تاريخ ووقت الإصدار 4ساعات و 42 دقيقة قبل الساعة 23:00UTC
التوقعات صالحة من19 الساعة 00 UTC إلى 20 الساعة 06 UTC
ريح 5 عقدةمن اتجاهات متغيرة
الرؤية 10 كم أو أكثر
الغيوم لا تقل 1500 م ولا وجود لمزنة ركامية السحاب الأسود
مؤقت
من 19 الساعة 00 UTC إلى 19 الساعة 09 UTC
ريح 6 عقدة من الشمال

TAF: LEMD 182300Z 1900/2006 VRB05KT CAVOK TX16/1915Z TN00/1906Z TEMPO 1900/1909 01006KT

أرصاد الطقس والتوقعات من أكثر من 4000 مطار (تقارير الطقس للمطار METAR والتنبؤ بالطقس بالمطارTAF).

المحطات المتاحة هي النقط الصفراء والحمراء على الخريطة.

حرك المؤشر فوق النقطة لمعرفة اسم المحطة.

ثم انقر لمعرفة أرصاد وتوقعات الطقس.

لتغيير الخارطة: اضغط على الأزرار الخضراء مع رمز الصليب الأسود للتكبير. على الزر الأخضر مع شرطة للتصغير، أو على الأسهم الخضراء للخرائط المجاورة.


METAR-TAF: